createdAt,value
2018-03-24T00:00:11.495Z,8.90
2018-03-24T00:01:13.978Z,8.90
2018-03-24T00:02:16.464Z,8.90
2018-03-24T00:03:18.925Z,8.90
2018-03-24T00:04:21.398Z,8.90
2018-03-24T00:05:24.445Z,8.90
2018-03-24T00:06:26.929Z,8.90
2018-03-24T00:07:29.431Z,8.90
2018-03-24T00:08:33.065Z,8.90
2018-03-24T00:09:35.530Z,8.90
2018-03-24T00:10:37.993Z,8.90
2018-03-24T00:11:40.474Z,8.90
2018-03-24T00:12:42.943Z,8.90
2018-03-24T00:13:45.412Z,8.90
2018-03-24T00:14:47.884Z,8.90
2018-03-24T00:15:50.349Z,8.90
2018-03-24T00:16:52.829Z,9.00
2018-03-24T00:17:55.293Z,8.90
2018-03-24T00:18:57.762Z,9.00
2018-03-24T00:20:00.997Z,8.90
2018-03-24T00:21:03.476Z,8.90
2018-03-24T00:22:05.953Z,9.00
2018-03-24T00:23:09.197Z,8.90
2018-03-24T00:24:11.669Z,8.90
2018-03-24T00:25:14.129Z,8.90
2018-03-24T00:26:16.600Z,8.90
2018-03-24T00:27:19.094Z,8.90
2018-03-24T00:28:22.505Z,8.90
2018-03-24T00:29:25.071Z,8.90
2018-03-24T00:30:27.481Z,8.90
2018-03-24T00:31:29.949Z,8.90
2018-03-24T00:32:32.545Z,8.90
2018-03-24T00:33:35.017Z,8.90
2018-03-24T00:34:37.489Z,8.90
2018-03-24T00:35:39.986Z,8.80
2018-03-24T00:36:42.454Z,8.80
2018-03-24T00:37:44.941Z,8.80
2018-03-24T00:38:47.420Z,8.80
2018-03-24T00:39:49.882Z,8.80
2018-03-24T00:40:52.345Z,8.80
2018-03-24T00:41:54.822Z,8.80
2018-03-24T00:42:57.313Z,8.80
2018-03-24T00:44:00.549Z,8.80
2018-03-24T00:45:03.019Z,8.80
2018-03-24T00:46:05.480Z,8.80
2018-03-24T00:47:07.951Z,8.80
2018-03-24T00:48:10.433Z,8.80
2018-03-24T00:49:12.942Z,8.80
2018-03-24T00:50:16.164Z,8.80
2018-03-24T00:51:18.621Z,8.80
2018-03-24T00:52:21.125Z,8.80
2018-03-24T00:53:24.373Z,8.80
2018-03-24T00:54:26.837Z,8.70
2018-03-24T00:55:29.298Z,8.80
2018-03-24T00:56:31.758Z,8.80
2018-03-24T00:57:34.221Z,8.80
2018-03-24T00:58:36.706Z,8.80
2018-03-24T00:59:39.174Z,8.80
2018-03-24T01:00:41.643Z,8.80
2018-03-24T01:01:44.202Z,8.80
2018-03-24T01:02:46.690Z,8.70
2018-03-24T01:03:49.166Z,8.80
2018-03-24T01:04:52.393Z,8.80
2018-03-24T01:05:54.857Z,8.80
2018-03-24T01:06:57.331Z,8.80
2018-03-24T01:07:59.801Z,8.80
2018-03-24T01:09:02.334Z,8.80
2018-03-24T01:10:04.843Z,8.80
2018-03-24T01:11:08.810Z,8.70
2018-03-24T01:12:11.278Z,8.80
2018-03-24T01:13:13.745Z,8.80
2018-03-24T01:14:16.244Z,8.80
2018-03-24T01:15:18.712Z,8.80
2018-03-24T01:16:21.949Z,8.80
2018-03-24T01:17:24.423Z,8.80
2018-03-24T01:18:26.903Z,8.80
2018-03-24T01:19:29.381Z,8.80
2018-03-24T01:20:32.609Z,8.80
2018-03-24T01:21:35.149Z,8.70
2018-03-24T01:22:38.381Z,8.80
2018-03-24T01:23:40.853Z,8.80
2018-03-24T01:24:43.337Z,8.80
2018-03-24T01:25:45.823Z,8.80
2018-03-24T01:26:49.058Z,8.80
2018-03-24T01:27:51.528Z,8.70
2018-03-24T01:28:54.011Z,8.80
2018-03-24T01:29:56.505Z,8.70
2018-03-24T01:30:58.973Z,8.70
2018-03-24T01:32:02.209Z,8.70
2018-03-24T01:33:04.673Z,8.70
2018-03-24T01:34:07.134Z,8.70
2018-03-24T01:35:09.621Z,8.70
2018-03-24T01:36:12.089Z,8.70
2018-03-24T01:37:15.323Z,8.60
2018-03-24T01:38:17.781Z,8.60
2018-03-24T01:39:21.106Z,8.60
2018-03-24T01:40:23.581Z,8.60
2018-03-24T01:41:26.044Z,8.60
2018-03-24T01:42:28.506Z,8.60
2018-03-24T01:43:31.738Z,8.50
2018-03-24T01:44:34.208Z,8.50
2018-03-24T01:45:36.685Z,8.50
2018-03-24T01:46:39.158Z,8.50
2018-03-24T01:47:41.621Z,8.40
2018-03-24T01:48:44.095Z,8.40
2018-03-24T01:49:46.588Z,8.40
2018-03-24T01:50:49.833Z,8.40
2018-03-24T01:51:52.322Z,8.30
2018-03-24T01:52:54.785Z,8.30
2018-03-24T01:53:57.254Z,8.30
2018-03-24T01:54:59.717Z,8.30
2018-03-24T01:56:02.207Z,8.30
2018-03-24T01:57:05.433Z,8.30
2018-03-24T01:58:07.897Z,8.20
2018-03-24T01:59:10.365Z,8.20
2018-03-24T02:00:12.838Z,8.20
2018-03-24T02:01:15.326Z,8.20
2018-03-24T02:02:18.565Z,8.10
2018-03-24T02:03:21.029Z,8.10
2018-03-24T02:04:23.527Z,8.10
2018-03-24T02:05:25.990Z,8.10
2018-03-24T02:06:28.484Z,8.00
2018-03-24T02:07:31.741Z,8.00
2018-03-24T02:08:34.205Z,8.00
2018-03-24T02:09:36.670Z,8.00
2018-03-24T02:10:39.909Z,8.00
2018-03-24T02:11:42.391Z,8.00
2018-03-24T02:12:44.857Z,7.90
2018-03-24T02:13:47.319Z,8.00
2018-03-24T02:14:49.784Z,8.00
2018-03-24T02:15:52.254Z,7.90
2018-03-24T02:16:54.737Z,7.90
2018-03-24T02:17:57.202Z,7.90
2018-03-24T02:18:59.681Z,7.90
2018-03-24T02:20:02.918Z,7.90
2018-03-24T02:21:06.204Z,7.90
2018-03-24T02:22:08.690Z,7.90
2018-03-24T02:23:11.161Z,7.90
2018-03-24T02:24:13.768Z,7.80
2018-03-24T02:25:16.234Z,7.90
2018-03-24T02:26:18.709Z,7.80
2018-03-24T02:27:21.189Z,7.80
2018-03-24T02:28:23.660Z,7.80
2018-03-24T02:29:26.135Z,7.80
2018-03-24T02:30:29.416Z,7.80
2018-03-24T02:31:32.002Z,7.80
2018-03-24T02:32:34.477Z,7.80
2018-03-24T02:33:37.709Z,7.80
2018-03-24T02:34:40.173Z,7.70
2018-03-24T02:35:42.642Z,7.70
2018-03-24T02:36:45.105Z,7.70
2018-03-24T02:37:47.612Z,7.70
2018-03-24T02:38:50.094Z,7.70
2018-03-24T02:39:53.382Z,7.70
2018-03-24T02:40:55.856Z,7.60
2018-03-24T02:41:58.319Z,7.70
2018-03-24T02:43:00.845Z,7.70
2018-03-24T02:44:03.305Z,7.60
2018-03-24T02:45:05.925Z,7.60
2018-03-24T02:46:08.389Z,7.60
2018-03-24T02:47:10.860Z,7.60
2018-03-24T02:48:13.353Z,7.60
2018-03-24T02:49:15.822Z,7.60
2018-03-24T02:50:18.286Z,7.60
2018-03-24T02:51:20.763Z,7.60
2018-03-24T02:52:23.250Z,7.60
2018-03-24T02:53:26.509Z,7.60
2018-03-24T02:54:28.981Z,7.50
2018-03-24T02:55:31.454Z,7.60
2018-03-24T02:56:34.682Z,7.50
2018-03-24T02:57:37.158Z,7.50
2018-03-24T02:58:39.645Z,7.50
2018-03-24T02:59:42.125Z,7.60
2018-03-24T03:00:44.609Z,7.50
2018-03-24T03:01:47.842Z,7.50
2018-03-24T03:02:50.310Z,7.50
2018-03-24T03:03:52.798Z,7.50
2018-03-24T03:04:55.290Z,7.40
2018-03-24T03:05:57.764Z,7.40
2018-03-24T03:07:00.233Z,7.40
2018-03-24T03:08:02.713Z,7.40
2018-03-24T03:09:05.193Z,7.40
2018-03-24T03:10:07.693Z,7.40
2018-03-24T03:11:10.162Z,7.40
2018-03-24T03:12:13.469Z,7.40
2018-03-24T03:13:16.009Z,7.40
2018-03-24T03:14:18.441Z,7.40
2018-03-24T03:15:20.908Z,7.40
2018-03-24T03:16:23.370Z,7.30
2018-03-24T03:17:25.842Z,7.30
2018-03-24T03:18:28.298Z,7.30
2018-03-24T03:19:30.781Z,7.30
2018-03-24T03:20:33.341Z,7.30
2018-03-24T03:21:47.695Z,7.30
2018-03-24T03:22:50.165Z,7.30
2018-03-24T03:23:53.405Z,7.20
2018-03-24T03:24:55.887Z,7.20
2018-03-24T03:25:58.368Z,7.20
2018-03-24T03:27:00.932Z,7.20
2018-03-24T03:28:03.428Z,7.20
2018-03-24T03:29:06.658Z,7.20
2018-03-24T03:30:14.923Z,7.20
2018-03-24T03:31:19.026Z,7.20
2018-03-24T03:32:22.053Z,7.10
2018-03-24T03:33:24.502Z,7.10
2018-03-24T03:34:26.972Z,7.10
2018-03-24T03:35:29.466Z,7.10
2018-03-24T03:36:32.707Z,7.10
2018-03-24T03:37:35.179Z,7.10
2018-03-24T03:38:37.643Z,7.10
2018-03-24T03:39:40.130Z,7.10
2018-03-24T03:40:42.604Z,7.10
2018-03-24T03:41:45.067Z,7.10
2018-03-24T03:42:47.549Z,7.10
2018-03-24T03:43:50.025Z,7.10
2018-03-24T03:44:52.482Z,7.10
2018-03-24T03:45:55.095Z,7.10
2018-03-24T03:46:57.601Z,7.10
2018-03-24T03:48:00.844Z,7.10
2018-03-24T03:49:03.315Z,7.10
2018-03-24T03:50:05.789Z,7.10
2018-03-24T03:51:08.262Z,7.10
2018-03-24T03:52:11.549Z,7.10
2018-03-24T03:53:14.062Z,7.10
2018-03-24T03:54:16.523Z,7.10
2018-03-24T03:55:18.993Z,7.10
2018-03-24T03:56:21.479Z,7.10
2018-03-24T03:57:23.950Z,7.10
2018-03-24T03:58:26.428Z,7.10
2018-03-24T03:59:28.905Z,7.00
2018-03-24T04:00:32.150Z,7.00
2018-03-24T04:01:34.683Z,7.00
2018-03-24T04:02:37.146Z,7.00
2018-03-24T04:03:39.611Z,7.00
2018-03-24T04:04:42.101Z,7.00
2018-03-24T04:05:44.574Z,7.00
2018-03-24T04:06:47.070Z,7.00
2018-03-24T04:07:49.551Z,7.00
2018-03-24T04:08:53.937Z,6.90
2018-03-24T04:09:56.406Z,7.00
2018-03-24T04:10:58.886Z,7.00
2018-03-24T04:12:02.138Z,6.90
2018-03-24T04:13:04.594Z,6.90
2018-03-24T04:14:07.062Z,7.00
2018-03-24T04:15:09.532Z,6.90
2018-03-24T04:16:12.010Z,6.90
2018-03-24T04:17:14.503Z,6.90
2018-03-24T04:18:17.739Z,6.90
2018-03-24T04:19:20.201Z,6.90
2018-03-24T04:20:23.027Z,6.90
2018-03-24T04:21:25.497Z,6.90
2018-03-24T04:22:27.990Z,6.90
2018-03-24T04:23:30.462Z,6.90
2018-03-24T04:24:32.933Z,6.80
2018-03-24T04:25:35.517Z,6.90
2018-03-24T04:26:37.995Z,6.90
2018-03-24T04:27:41.247Z,6.90
2018-03-24T04:28:43.724Z,6.80
2018-03-24T04:29:46.188Z,6.80
2018-03-24T04:30:48.661Z,6.80
2018-03-24T04:31:51.122Z,6.80
2018-03-24T04:32:53.610Z,6.80
2018-03-24T04:33:56.860Z,6.80
2018-03-24T04:34:59.335Z,6.80
2018-03-24T04:36:01.978Z,6.80
2018-03-24T04:37:04.449Z,6.80
2018-03-24T04:38:06.939Z,6.80
2018-03-24T04:39:09.422Z,6.80
2018-03-24T04:40:12.655Z,6.70
2018-03-24T04:41:15.150Z,6.70
2018-03-24T04:42:17.620Z,6.70
2018-03-24T04:43:20.889Z,6.70
2018-03-24T04:44:23.352Z,6.70
2018-03-24T04:45:25.821Z,6.70
2018-03-24T04:46:28.383Z,6.70
2018-03-24T04:47:30.961Z,6.70
2018-03-24T04:48:34.225Z,6.70
2018-03-24T04:49:36.707Z,6.70
2018-03-24T04:50:39.166Z,6.70
2018-03-24T04:51:42.181Z,6.70
2018-03-24T04:52:44.666Z,6.70
2018-03-24T04:53:47.145Z,6.70
2018-03-24T04:54:49.611Z,6.70
2018-03-24T04:55:52.078Z,6.70
2018-03-24T04:56:54.541Z,6.70
2018-03-24T04:57:57.009Z,6.70
2018-03-24T04:58:59.497Z,6.70
2018-03-24T05:00:01.968Z,6.70
2018-03-24T05:01:05.254Z,6.70
2018-03-24T05:02:07.699Z,6.70
2018-03-24T05:03:10.161Z,6.70
2018-03-24T05:04:12.660Z,6.70
2018-03-24T05:05:15.889Z,6.70
2018-03-24T05:06:18.354Z,6.70
2018-03-24T05:07:20.821Z,6.70
2018-03-24T05:08:23.293Z,6.70
2018-03-24T05:09:25.829Z,6.70
2018-03-24T05:10:29.032Z,6.70
2018-03-24T05:11:32.233Z,6.70
2018-03-24T05:12:34.697Z,6.70
2018-03-24T05:13:37.264Z,6.80
2018-03-24T05:14:39.752Z,6.80
2018-03-24T05:15:42.985Z,6.80
2018-03-24T05:16:45.453Z,6.80
2018-03-24T05:17:47.918Z,6.80
2018-03-24T05:18:50.385Z,6.80
2018-03-24T05:19:52.879Z,6.90
2018-03-24T05:20:55.350Z,6.90
2018-03-24T05:21:58.590Z,6.90
2018-03-24T05:23:01.065Z,6.90
2018-03-24T05:24:03.533Z,6.90
2018-03-24T05:25:06.024Z,6.90
2018-03-24T05:26:09.273Z,6.90
2018-03-24T05:27:11.742Z,6.90
2018-03-24T05:28:14.222Z,6.90
2018-03-24T05:29:16.694Z,6.90
2018-03-24T05:30:19.178Z,7.00
2018-03-24T05:31:22.413Z,7.00
2018-03-24T05:32:24.889Z,7.00
2018-03-24T05:33:27.358Z,7.00
2018-03-24T05:34:29.817Z,7.10
2018-03-24T05:35:32.344Z,7.10
2018-03-24T05:36:34.885Z,7.10
2018-03-24T05:37:38.114Z,7.10
2018-03-24T05:38:40.598Z,7.10
2018-03-24T05:39:43.079Z,7.10
2018-03-24T05:40:45.571Z,7.10
2018-03-24T05:41:48.048Z,7.10
2018-03-24T05:42:50.562Z,7.20
2018-03-24T05:43:53.033Z,7.20
2018-03-24T05:44:55.521Z,7.20
2018-03-24T05:45:58.786Z,7.20
2018-03-24T05:47:01.261Z,7.20
2018-03-24T05:48:04.509Z,7.20
2018-03-24T05:49:06.998Z,7.20
2018-03-24T05:50:09.479Z,7.30
2018-03-24T05:51:12.736Z,7.30
2018-03-24T05:52:15.213Z,7.30
2018-03-24T05:53:17.774Z,7.30
2018-03-24T05:54:20.246Z,7.30
2018-03-24T05:55:23.482Z,7.30
2018-03-24T05:56:25.986Z,7.30
2018-03-24T05:57:28.470Z,7.30
2018-03-24T05:58:31.713Z,7.30
2018-03-24T05:59:34.185Z,7.30
2018-03-24T06:00:36.653Z,7.40
2018-03-24T06:01:39.156Z,7.30
2018-03-24T06:02:41.634Z,7.30
2018-03-24T06:03:44.113Z,7.30
2018-03-24T06:04:46.575Z,7.30
2018-03-24T06:05:49.066Z,7.40
2018-03-24T06:06:51.560Z,7.40
2018-03-24T06:07:54.790Z,7.40
2018-03-24T06:08:57.265Z,7.40
2018-03-24T06:09:59.729Z,7.40
2018-03-24T06:11:02.218Z,7.40
2018-03-24T06:12:04.727Z,7.40
2018-03-24T06:13:07.203Z,7.40
2018-03-24T06:14:09.688Z,7.40
2018-03-24T06:15:12.157Z,7.50
2018-03-24T06:16:14.637Z,7.50
2018-03-24T06:17:17.320Z,7.50
2018-03-24T06:18:19.786Z,7.50
2018-03-24T06:19:23.024Z,7.50
2018-03-24T06:20:25.515Z,7.50
2018-03-24T06:21:27.979Z,7.60
2018-03-24T06:22:30.457Z,7.50
2018-03-24T06:23:33.105Z,7.60
2018-03-24T06:24:35.581Z,7.60
2018-03-24T06:25:38.049Z,7.60
2018-03-24T06:26:40.521Z,7.60
2018-03-24T06:27:43.013Z,7.60
2018-03-24T06:28:45.493Z,7.60
2018-03-24T06:29:47.969Z,7.60
2018-03-24T06:31:05.322Z,7.60
2018-03-24T06:32:07.802Z,7.60
2018-03-24T06:33:11.063Z,7.70
2018-03-24T06:34:13.537Z,7.70
2018-03-24T06:35:17.509Z,7.70
2018-03-24T06:36:20.810Z,7.70
2018-03-24T06:37:23.285Z,7.70
2018-03-24T06:38:25.773Z,7.70
2018-03-24T06:39:29.011Z,7.80
2018-03-24T06:40:31.475Z,7.70
2018-03-24T06:41:34.049Z,7.80
2018-03-24T06:42:36.518Z,7.80
2018-03-24T06:43:39.009Z,7.80
2018-03-24T06:44:42.249Z,7.80
2018-03-24T06:45:44.719Z,7.80
2018-03-24T06:46:47.213Z,7.80
2018-03-24T06:47:50.458Z,7.90
2018-03-24T06:48:52.949Z,7.90
2018-03-24T06:49:55.422Z,7.90
2018-03-24T06:50:57.906Z,7.90
2018-03-24T06:52:00.379Z,7.90
2018-03-24T06:53:02.852Z,7.90
2018-03-24T06:54:05.341Z,8.00
2018-03-24T06:55:07.809Z,7.90
2018-03-24T06:56:10.282Z,7.90
2018-03-24T06:57:12.746Z,7.90
2018-03-24T06:58:15.222Z,7.90
2018-03-24T06:59:17.711Z,7.80
2018-03-24T07:00:22.537Z,7.80
2018-03-24T07:01:25.773Z,7.80
2018-03-24T07:02:28.261Z,7.80
2018-03-24T07:03:30.735Z,7.80
2018-03-24T07:04:33.989Z,7.80
2018-03-24T07:05:36.465Z,7.80
2018-03-24T07:06:38.953Z,7.80
2018-03-24T07:07:42.192Z,7.80
2018-03-24T07:08:44.680Z,7.80
2018-03-24T07:09:47.452Z,7.80
2018-03-24T07:10:49.933Z,7.80
2018-03-24T07:11:53.170Z,7.80
2018-03-24T07:12:55.650Z,7.80
2018-03-24T07:13:58.123Z,7.80
2018-03-24T07:15:00.635Z,7.80
2018-03-24T07:16:03.105Z,7.80
2018-03-24T07:17:05.618Z,7.80
2018-03-24T07:18:08.062Z,7.80
2018-03-24T07:19:10.559Z,7.80
2018-03-24T07:20:13.315Z,7.80
2018-03-24T07:21:15.853Z,7.80
2018-03-24T07:22:19.044Z,7.90
2018-03-24T07:23:21.668Z,7.90
2018-03-24T07:24:24.906Z,7.90
2018-03-24T07:25:27.398Z,7.90
2018-03-24T07:26:29.861Z,7.90
2018-03-24T07:27:32.330Z,7.90
2018-03-24T07:28:35.575Z,7.90
2018-03-24T07:29:38.046Z,7.90
2018-03-24T07:30:40.562Z,7.90
2018-03-24T07:31:43.031Z,7.90
2018-03-24T07:32:45.533Z,7.90
2018-03-24T07:33:48.009Z,7.90
2018-03-24T07:34:50.485Z,7.90
2018-03-24T07:35:53.027Z,7.90
2018-03-24T07:36:57.586Z,7.90
2018-03-24T07:38:00.835Z,7.90
2018-03-24T07:39:03.325Z,7.90
2018-03-24T07:40:06.571Z,8.00
2018-03-24T07:41:09.064Z,8.00
2018-03-24T07:42:12.319Z,8.00
2018-03-24T07:43:14.881Z,8.00
2018-03-24T07:44:17.318Z,8.00
2018-03-24T07:45:19.815Z,8.00
2018-03-24T07:46:22.299Z,8.00
2018-03-24T07:47:24.776Z,8.00
2018-03-24T07:48:28.024Z,8.00
2018-03-24T07:49:30.497Z,8.00
2018-03-24T07:50:32.987Z,8.00
2018-03-24T07:51:36.247Z,8.00
2018-03-24T07:52:38.918Z,8.00
2018-03-24T07:53:41.417Z,8.10
2018-03-24T07:54:44.662Z,8.10
2018-03-24T07:55:47.137Z,8.10
2018-03-24T07:56:49.647Z,8.10
2018-03-24T07:57:52.129Z,8.10
2018-03-24T07:58:54.745Z,8.10
2018-03-24T07:59:57.227Z,8.10
2018-03-24T08:01:00.470Z,8.20
2018-03-24T08:02:02.989Z,8.20
2018-03-24T08:03:05.517Z,8.20
2018-03-24T08:04:07.998Z,8.20
2018-03-24T08:05:11.259Z,8.20
2018-03-24T08:06:13.962Z,8.20
2018-03-24T08:07:16.501Z,8.20
2018-03-24T08:08:19.757Z,8.30
2018-03-24T08:09:22.234Z,8.20
2018-03-24T08:10:24.712Z,8.30
2018-03-24T08:11:28.002Z,8.30
2018-03-24T08:12:30.558Z,8.30
2018-03-24T08:13:33.035Z,8.30
2018-03-24T08:14:35.502Z,8.30
2018-03-24T08:15:38.825Z,8.40
2018-03-24T08:16:41.311Z,8.40
2018-03-24T08:17:44.110Z,8.40
2018-03-24T08:18:46.583Z,8.40
2018-03-24T08:19:49.817Z,8.40
2018-03-24T08:20:52.326Z,8.40
2018-03-24T08:21:54.795Z,8.40
2018-03-24T08:22:57.288Z,8.40
2018-03-24T08:23:59.760Z,8.50
2018-03-24T08:25:02.233Z,8.50
2018-03-24T08:26:04.704Z,8.50
2018-03-24T08:27:07.222Z,8.50
2018-03-24T08:28:09.697Z,8.50
2018-03-24T08:29:12.934Z,8.50
2018-03-24T08:30:15.421Z,8.50
2018-03-24T08:31:17.898Z,8.50
2018-03-24T08:32:20.377Z,8.50
2018-03-24T08:33:23.641Z,8.50
2018-03-24T08:34:26.118Z,8.50
2018-03-24T08:35:29.362Z,8.50
2018-03-24T08:36:31.855Z,8.50
2018-03-24T08:37:34.331Z,8.60
2018-03-24T08:38:37.913Z,8.60
2018-03-24T08:39:40.386Z,8.60
2018-03-24T08:40:43.632Z,8.70
2018-03-24T08:41:46.102Z,8.60
2018-03-24T08:42:48.577Z,8.70
2018-03-24T08:43:51.095Z,8.70
2018-03-24T08:44:53.613Z,8.70
2018-03-24T08:45:56.089Z,8.70
2018-03-24T08:46:59.326Z,8.80
2018-03-24T08:48:01.836Z,8.70
2018-03-24T08:49:05.117Z,8.70
2018-03-24T08:50:07.620Z,8.70
2018-03-24T08:51:10.114Z,8.70
2018-03-24T08:52:13.226Z,8.80
2018-03-24T08:53:16.480Z,8.80
2018-03-24T08:54:18.977Z,8.80
2018-03-24T08:55:22.226Z,8.80
2018-03-24T08:56:24.701Z,8.80
2018-03-24T08:57:27.182Z,8.80
2018-03-24T08:58:29.674Z,8.80
2018-03-24T08:59:33.107Z,8.90
2018-03-24T09:00:35.577Z,8.90
2018-03-24T09:01:38.086Z,8.90
2018-03-24T09:02:41.024Z,8.90
2018-03-24T09:03:43.497Z,8.90
2018-03-24T09:04:45.986Z,8.90
2018-03-24T09:05:49.233Z,8.90
2018-03-24T09:06:51.705Z,8.90
2018-03-24T09:07:54.174Z,9.00
2018-03-24T09:08:56.649Z,8.90
2018-03-24T09:09:59.929Z,9.00
2018-03-24T09:11:02.420Z,9.00
2018-03-24T09:12:04.917Z,9.00
2018-03-24T09:13:07.385Z,9.00
2018-03-24T09:14:09.885Z,9.00
2018-03-24T09:15:13.146Z,9.00
2018-03-24T09:16:15.638Z,9.00
2018-03-24T09:17:18.102Z,9.00
2018-03-24T09:18:21.367Z,9.00
2018-03-24T09:19:23.833Z,9.00
2018-03-24T09:20:26.573Z,9.10
2018-03-24T09:21:29.026Z,9.10
2018-03-24T09:22:31.538Z,9.10
2018-03-24T09:23:34.010Z,9.10
2018-03-24T09:24:37.243Z,9.10
2018-03-24T09:25:39.752Z,9.10
2018-03-24T09:26:42.253Z,9.10
2018-03-24T09:27:44.729Z,9.20
2018-03-24T09:28:47.189Z,9.20
2018-03-24T09:29:49.678Z,9.20
2018-03-24T09:30:52.178Z,9.20
2018-03-24T09:31:55.885Z,9.20
2018-03-24T09:32:59.142Z,9.20
2018-03-24T09:34:01.630Z,9.20
2018-03-24T09:35:04.883Z,9.30
2018-03-24T09:36:07.380Z,9.20
2018-03-24T09:37:10.626Z,9.30
2018-03-24T09:38:13.097Z,9.30
2018-03-24T09:39:15.569Z,9.30
2018-03-24T09:40:18.038Z,9.40
2018-03-24T09:41:20.526Z,9.30
2018-03-24T09:42:23.826Z,9.40
2018-03-24T09:43:26.300Z,9.30
2018-03-24T09:44:28.775Z,9.40
2018-03-24T09:45:31.257Z,9.40
2018-03-24T09:46:33.746Z,9.40
2018-03-24T09:47:36.325Z,9.40
2018-03-24T09:48:39.562Z,9.50
2018-03-24T09:49:42.030Z,9.50
2018-03-24T09:50:44.506Z,9.50
2018-03-24T09:51:46.989Z,9.50
2018-03-24T09:52:50.319Z,9.50
2018-03-24T09:53:53.561Z,9.60
2018-03-24T09:54:56.810Z,9.60
2018-03-24T09:55:59.298Z,9.60
2018-03-24T09:57:01.809Z,9.60
2018-03-24T09:58:04.279Z,9.60
2018-03-24T09:59:06.766Z,9.60
2018-03-24T10:00:09.248Z,9.60
2018-03-24T10:01:11.729Z,9.60
2018-03-24T10:02:14.218Z,9.70
2018-03-24T10:03:17.459Z,9.70
2018-03-24T10:04:19.929Z,9.70
2018-03-24T10:05:22.409Z,9.70
2018-03-24T10:06:24.880Z,9.70
2018-03-24T10:07:28.147Z,9.80
2018-03-24T10:08:30.618Z,9.70
2018-03-24T10:09:33.086Z,9.80
2018-03-24T10:10:35.554Z,9.80
2018-03-24T10:11:38.785Z,9.90
2018-03-24T10:12:41.304Z,9.90
2018-03-24T10:13:44.546Z,9.90
2018-03-24T10:14:47.038Z,9.90
2018-03-24T10:15:50.281Z,9.90
2018-03-24T10:16:52.766Z,9.90
2018-03-24T10:17:55.253Z,10.00
2018-03-24T10:18:57.737Z,10.00
2018-03-24T10:20:00.974Z,10.00
2018-03-24T10:23:02.629Z,10.00
2018-03-24T10:25:38.270Z,10.10
2018-03-24T10:26:40.768Z,10.10
2018-03-24T10:27:43.267Z,10.20
2018-03-24T10:28:45.773Z,10.20
2018-03-24T10:29:48.313Z,10.20
2018-03-24T10:30:50.835Z,10.20
2018-03-24T10:31:53.323Z,10.30
2018-03-24T10:32:55.877Z,10.30
2018-03-24T10:34:02.009Z,10.30
2018-03-24T10:35:08.492Z,10.40
2018-03-24T10:36:11.755Z,10.40
2018-03-24T10:37:14.236Z,10.40
2018-03-24T10:38:17.493Z,10.50
2018-03-24T10:39:20.009Z,10.50
2018-03-24T10:40:22.497Z,10.50
2018-03-24T10:41:24.983Z,10.50
2018-03-24T10:42:27.461Z,10.50
2018-03-24T10:43:35.610Z,10.50
2018-03-24T10:44:38.138Z,10.60
2018-03-24T10:45:41.396Z,10.60
2018-03-24T10:46:43.970Z,10.60
2018-03-24T10:47:47.232Z,10.60
2018-03-24T10:48:49.714Z,10.60
2018-03-24T10:49:52.213Z,10.60
2018-03-24T10:50:55.220Z,10.60
2018-03-24T10:51:57.767Z,10.70
2018-03-24T10:53:00.309Z,10.70
2018-03-24T10:54:02.785Z,10.70
2018-03-24T10:55:05.301Z,10.70
2018-03-24T10:56:08.373Z,10.80
2018-03-24T10:57:10.855Z,10.80
2018-03-24T10:58:13.335Z,10.80
2018-03-24T10:59:15.845Z,10.80
2018-03-24T11:00:18.347Z,10.90
2018-03-24T11:01:27.676Z,10.90
2018-03-24T11:02:30.165Z,10.90
2018-03-24T11:03:33.429Z,10.90
2018-03-24T11:04:35.909Z,10.90
2018-03-24T11:05:39.182Z,11.00
2018-03-24T11:06:41.659Z,10.90
2018-03-24T11:07:44.897Z,11.00
2018-03-24T11:08:47.377Z,11.00
2018-03-24T11:09:49.876Z,11.00
2018-03-24T11:10:53.169Z,11.00
2018-03-24T11:11:56.422Z,11.00
2018-03-24T11:12:58.906Z,11.00
2018-03-24T11:14:02.190Z,11.00
2018-03-24T11:15:04.702Z,11.00
2018-03-24T11:16:07.201Z,11.00
2018-03-24T11:17:09.685Z,11.00
2018-03-24T11:18:12.958Z,11.10
2018-03-24T11:19:15.439Z,11.00
2018-03-24T11:20:18.681Z,11.00
2018-03-24T11:21:21.180Z,11.10
2018-03-24T11:22:24.439Z,11.00
2018-03-24T11:23:27.025Z,11.00
2018-03-24T11:24:30.283Z,11.00
2018-03-24T11:25:32.753Z,11.10
2018-03-24T11:26:35.264Z,11.00
2018-03-24T11:27:37.734Z,11.00
2018-03-24T11:28:40.233Z,11.00
2018-03-24T11:29:42.787Z,11.00
2018-03-24T11:30:45.345Z,11.00
2018-03-24T11:31:47.898Z,11.00
2018-03-24T11:32:50.382Z,11.00
2018-03-24T11:33:52.866Z,11.00
2018-03-24T11:34:55.350Z,11.00
2018-03-24T11:35:57.852Z,11.10
2018-03-24T11:37:00.361Z,11.10
2018-03-24T11:38:02.834Z,11.10
2018-03-24T11:39:05.369Z,11.10
2018-03-24T11:40:08.575Z,11.20
2018-03-24T11:41:11.059Z,11.20
2018-03-24T11:42:13.565Z,11.20
2018-03-24T11:43:16.057Z,11.30
2018-03-24T11:44:18.536Z,11.20
2018-03-24T11:45:21.021Z,11.30
2018-03-24T11:46:24.267Z,11.30
2018-03-24T11:47:26.869Z,11.30
2018-03-24T11:48:29.345Z,11.30
2018-03-24T11:49:32.625Z,11.30
2018-03-24T11:50:35.905Z,11.30
2018-03-24T11:51:39.148Z,11.30
2018-03-24T11:52:41.653Z,11.30
2018-03-24T11:53:45.680Z,11.40
2018-03-24T11:54:48.153Z,11.30
2018-03-24T11:55:50.662Z,11.40
2018-03-24T11:56:53.141Z,11.40
2018-03-24T11:57:55.662Z,11.50
2018-03-24T11:58:58.134Z,11.50
2018-03-24T12:00:06.250Z,11.60
2018-03-24T12:01:08.736Z,11.60
2018-03-24T12:02:11.196Z,11.60
2018-03-24T12:03:13.685Z,11.70
2018-03-24T12:04:16.177Z,11.70
2018-03-24T12:05:18.649Z,11.70
2018-03-24T12:06:21.119Z,11.80
2018-03-24T12:07:23.591Z,11.80
2018-03-24T12:08:26.093Z,11.80
2018-03-24T12:09:29.326Z,11.80
2018-03-24T12:10:31.832Z,11.90
2018-03-24T12:11:34.301Z,11.90
2018-03-24T12:12:36.789Z,11.90
2018-03-24T12:13:39.293Z,11.90
2018-03-24T12:14:41.783Z,11.90
2018-03-24T12:15:44.280Z,11.90
2018-03-24T12:16:46.757Z,12.00
2018-03-24T12:17:49.225Z,12.00
2018-03-24T12:18:51.729Z,12.00
2018-03-24T12:19:54.200Z,12.00
2018-03-24T12:20:56.685Z,12.00
2018-03-24T12:21:59.936Z,12.00
2018-03-24T12:23:02.406Z,12.00
2018-03-24T12:24:04.898Z,12.00
2018-03-24T12:25:08.155Z,12.10
2018-03-24T12:26:10.639Z,12.00
2018-03-24T12:27:13.894Z,12.10
2018-03-24T12:28:16.358Z,12.00
2018-03-24T12:29:18.850Z,12.00
2018-03-24T12:30:21.318Z,12.00
2018-03-24T12:31:23.786Z,12.00
2018-03-24T12:32:27.022Z,12.00
2018-03-24T12:33:29.511Z,12.00
2018-03-24T12:34:31.997Z,12.10
2018-03-24T12:35:35.242Z,12.10
2018-03-24T12:36:37.720Z,12.00
2018-03-24T12:37:40.203Z,12.10
2018-03-24T12:38:42.682Z,12.10
2018-03-24T12:39:46.810Z,12.10
2018-03-24T12:40:49.535Z,12.00
2018-03-24T12:41:52.013Z,12.00
2018-03-24T12:42:55.246Z,12.10
2018-03-24T12:43:57.730Z,12.00
2018-03-24T12:45:00.214Z,12.10
2018-03-24T12:46:02.778Z,12.10
2018-03-24T12:47:05.266Z,12.10
2018-03-24T12:48:08.501Z,12.10
2018-03-24T12:49:10.989Z,12.00
2018-03-24T12:50:13.521Z,12.00
2018-03-24T12:51:15.988Z,12.10
2018-03-24T12:52:18.459Z,12.10
2018-03-24T12:53:20.946Z,12.10
2018-03-24T12:54:23.429Z,12.10
2018-03-24T12:55:26.682Z,12.00
2018-03-24T12:56:29.153Z,12.00
2018-03-24T12:57:31.630Z,12.00
2018-03-24T12:58:34.103Z,12.00
2018-03-24T12:59:37.355Z,12.00
2018-03-24T13:00:39.858Z,12.00
2018-03-24T13:01:43.114Z,12.10
2018-03-24T13:02:45.601Z,12.00
2018-03-24T13:03:48.073Z,12.10
2018-03-24T13:04:51.325Z,12.10
2018-03-24T13:05:54.635Z,12.10
2018-03-24T13:06:57.127Z,12.10
2018-03-24T13:07:59.611Z,12.10
2018-03-24T13:09:02.095Z,12.20
2018-03-24T13:10:04.630Z,12.20
2018-03-24T13:11:07.152Z,12.20
2018-03-24T13:12:09.623Z,12.20
2018-03-24T13:13:12.863Z,12.30
2018-03-24T13:14:15.342Z,12.30
2018-03-24T13:15:17.815Z,12.40
2018-03-24T13:16:20.331Z,12.40
2018-03-24T13:17:22.849Z,12.40
2018-03-24T13:18:25.285Z,12.50
2018-03-24T13:19:27.768Z,12.50
2018-03-24T13:20:30.234Z,12.50
2018-03-24T13:21:32.724Z,12.60
2018-03-24T13:22:35.945Z,12.60
2018-03-24T13:23:38.413Z,12.60
2018-03-24T13:24:40.889Z,12.70
2018-03-24T13:25:43.357Z,12.70
2018-03-24T13:26:45.901Z,12.70
2018-03-24T13:27:48.373Z,12.70
2018-03-24T13:28:50.849Z,12.70
2018-03-24T13:29:53.323Z,12.70
2018-03-24T13:30:55.806Z,12.70
2018-03-24T13:31:59.071Z,12.70
2018-03-24T13:33:01.562Z,12.70
2018-03-24T13:34:04.809Z,12.70
2018-03-24T13:35:07.290Z,12.70
2018-03-24T13:36:09.769Z,12.70
2018-03-24T13:37:12.257Z,12.70
2018-03-24T13:38:14.722Z,12.80
2018-03-24T13:39:17.258Z,12.80
2018-03-24T13:40:19.790Z,12.80
2018-03-24T13:41:22.316Z,12.90
2018-03-24T13:42:24.766Z,12.90
2018-03-24T13:43:28.001Z,12.90
2018-03-24T13:44:30.498Z,12.90
2018-03-24T13:45:32.996Z,13.00
2018-03-24T13:46:35.468Z,13.00
2018-03-24T13:47:37.950Z,13.00
2018-03-24T13:48:40.446Z,13.00
2018-03-24T13:49:42.901Z,13.10
2018-03-24T13:50:45.397Z,13.10